createdAt,value
2023-03-16T00:00:55.632Z,101721.53
2023-03-16T00:03:23.376Z,101710.25
2023-03-16T00:05:54.045Z,101712.91
2023-03-16T00:08:21.709Z,101709.44
2023-03-16T00:10:49.185Z,101704.25
2023-03-16T00:13:19.021Z,101707.72
2023-03-16T00:15:59.176Z,101704.22
2023-03-16T00:18:28.936Z,101706.84
2023-03-16T00:21:05.850Z,101705.13
2023-03-16T00:23:37.825Z,101712.06
2023-03-16T00:26:09.196Z,101708.63
2023-03-16T00:28:37.185Z,101708.63
2023-03-16T00:31:11.855Z,101705.16
2023-03-16T00:33:39.789Z,101699.97
2023-03-16T00:36:09.484Z,101698.22
2023-03-16T00:38:45.271Z,101693.88
2023-03-16T00:41:15.039Z,101698.22
2023-03-16T00:43:45.416Z,101691.28
2023-03-16T00:46:17.024Z,101688.69
2023-03-16T00:48:47.157Z,101684.38
2023-03-16T00:51:17.946Z,101682.63
2023-03-16T00:53:47.387Z,101680.03
2023-03-16T00:56:16.794Z,101668.75
2023-03-16T00:58:44.764Z,101667.00
2023-03-16T01:01:19.379Z,101656.63
2023-03-16T01:03:47.292Z,101663.53
2023-03-16T01:06:20.551Z,101660.94
2023-03-16T01:08:48.806Z,101659.22
2023-03-16T01:11:22.429Z,101654.03
2023-03-16T01:13:54.288Z,101658.31
2023-03-16T01:16:23.385Z,101653.09
2023-03-16T01:18:52.654Z,101647.91
2023-03-16T01:21:21.709Z,101644.41
2023-03-16T01:23:50.554Z,101634.84
2023-03-16T01:26:19.137Z,101632.22
2023-03-16T01:28:48.568Z,101632.22
2023-03-16T01:31:16.859Z,101633.09
2023-03-16T01:33:44.650Z,101630.47
2023-03-16T01:36:18.956Z,101621.75
2023-03-16T01:38:54.128Z,101617.44
2023-03-16T01:41:22.717Z,101615.63
2023-03-16T01:43:51.957Z,101618.25
2023-03-16T01:46:26.010Z,101618.28
2023-03-16T01:49:25.263Z,101611.31
2023-03-16T01:52:37.429Z,101602.56
2023-03-16T01:55:15.781Z,101611.25
2023-03-16T01:57:47.064Z,101610.34
2023-03-16T02:00:23.625Z,101609.47
2023-03-16T02:03:15.084Z,101602.50
2023-03-16T02:06:01.127Z,101591.22
2023-03-16T02:08:33.538Z,101592.09
2023-03-16T02:11:01.275Z,101604.19
2023-03-16T02:13:43.545Z,101591.19
2023-03-16T02:16:19.392Z,101590.34
2023-03-16T02:18:48.698Z,101582.53
2023-03-16T02:21:40.441Z,101576.47
2023-03-16T02:24:08.250Z,101574.69
2023-03-16T02:27:06.401Z,101571.25
2023-03-16T02:30:12.990Z,101578.19
2023-03-16T02:32:54.811Z,101572.06
2023-03-16T02:35:23.224Z,101562.56
2023-03-16T02:37:52.619Z,101555.66
2023-03-16T02:40:23.602Z,101562.63
2023-03-16T02:43:04.320Z,101567.84
2023-03-16T02:45:46.163Z,101569.63
2023-03-16T02:48:23.496Z,101560.94
2023-03-16T02:50:54.301Z,101560.94
2023-03-16T02:53:22.424Z,101560.97
2023-03-16T02:55:50.629Z,101563.59
2023-03-16T02:58:19.110Z,101560.16
2023-03-16T03:00:47.658Z,101574.94
2023-03-16T03:03:19.057Z,101568.84
2023-03-16T03:05:46.607Z,101557.59
2023-03-16T03:08:14.761Z,101557.59
2023-03-16T03:10:42.643Z,101550.66
2023-03-16T03:13:12.306Z,101558.47
2023-03-16T03:15:41.101Z,101568.88
2023-03-16T03:18:11.720Z,101560.22
2023-03-16T03:20:40.719Z,101559.34
2023-03-16T03:23:08.304Z,101565.44
2023-03-16T03:25:36.039Z,101561.97
2023-03-16T03:28:05.660Z,101549.78
2023-03-16T03:30:33.625Z,101542.84
2023-03-16T03:33:01.776Z,101541.97
2023-03-16T03:35:30.399Z,101545.44
2023-03-16T03:37:58.035Z,101543.69
2023-03-16T03:40:27.584Z,101537.59
2023-03-16T03:43:02.148Z,101534.09
2023-03-16T03:45:31.864Z,101535.00
2023-03-16T03:47:59.778Z,101534.97
2023-03-16T03:50:28.764Z,101530.63
2023-03-16T03:53:17.150Z,101530.63
2023-03-16T03:56:04.673Z,101519.31
2023-03-16T03:58:32.325Z,101528.00
2023-03-16T04:00:59.916Z,101522.78
2023-03-16T04:03:27.695Z,101513.22
2023-03-16T04:05:56.430Z,101518.44
2023-03-16T04:08:24.156Z,101521.03
2023-03-16T04:10:51.591Z,101517.53
2023-03-16T04:13:21.676Z,101511.50
2023-03-16T04:16:02.663Z,101519.31
2023-03-16T04:18:40.985Z,101509.72
2023-03-16T04:21:18.859Z,101515.81
2023-03-16T04:23:50.362Z,101510.59
2023-03-16T04:26:18.087Z,101524.47
2023-03-16T04:28:48.406Z,101524.47
2023-03-16T04:31:19.038Z,101518.41
2023-03-16T04:33:48.338Z,101521.03
2023-03-16T04:36:16.705Z,101515.81
2023-03-16T04:38:44.907Z,101509.75
2023-03-16T04:41:13.330Z,101508.00
2023-03-16T04:43:49.686Z,101511.44
2023-03-16T04:46:22.573Z,101511.44
2023-03-16T04:48:50.253Z,101508.00
2023-03-16T04:51:18.268Z,101505.41
2023-03-16T04:53:57.594Z,101494.13
2023-03-16T04:56:32.036Z,101496.72
2023-03-16T04:59:03.997Z,101493.28
2023-03-16T05:01:40.787Z,101493.28
2023-03-16T05:04:09.395Z,101485.47
2023-03-16T05:06:39.500Z,101488.06
2023-03-16T05:09:08.904Z,101490.69
2023-03-16T05:11:38.780Z,101483.72
2023-03-16T05:14:09.725Z,101483.75
2023-03-16T05:16:49.851Z,101487.22
2023-03-16T05:19:18.260Z,101479.41
2023-03-16T05:21:45.823Z,101488.97
2023-03-16T05:24:13.742Z,101488.09
2023-03-16T05:26:41.403Z,101478.53
2023-03-16T05:29:12.545Z,101486.38
2023-03-16T05:31:40.624Z,101475.06
2023-03-16T05:34:15.255Z,101475.94
2023-03-16T05:36:45.058Z,101464.66
2023-03-16T05:39:16.083Z,101474.22
2023-03-16T05:41:47.672Z,101476.81
2023-03-16T05:44:24.751Z,101479.41
2023-03-16T05:47:05.233Z,101481.16
2023-03-16T05:49:35.881Z,101487.25
2023-03-16T05:52:07.650Z,101482.06
2023-03-16T05:54:36.696Z,101482.91
2023-03-16T05:57:06.756Z,101477.75
2023-03-16T05:59:36.535Z,101479.50
2023-03-16T06:02:05.402Z,101476.88
2023-03-16T06:04:33.516Z,101476.88
2023-03-16T06:07:01.438Z,101482.13
2023-03-16T06:09:35.019Z,101472.59
2023-03-16T06:12:07.786Z,101476.94
2023-03-16T06:14:36.189Z,101475.22
2023-03-16T06:17:03.866Z,101468.28
2023-03-16T06:19:32.595Z,101463.97
2023-03-16T06:22:02.633Z,101459.66
2023-03-16T06:24:31.201Z,101468.34
2023-03-16T06:26:58.839Z,101460.56
2023-03-16T06:29:33.397Z,101467.50
2023-03-16T06:32:04.483Z,101464.94
2023-03-16T06:34:32.343Z,101463.22
2023-03-16T06:36:59.920Z,101474.50
2023-03-16T06:39:27.876Z,101464.97
2023-03-16T06:41:55.597Z,101467.59
2023-03-16T06:44:23.566Z,101471.06
2023-03-16T06:47:01.198Z,101474.56
2023-03-16T06:49:28.819Z,101467.63
2023-03-16T06:51:58.607Z,101468.50
2023-03-16T06:54:26.961Z,101477.22
2023-03-16T06:56:54.697Z,101472.03
2023-03-16T06:59:22.796Z,101472.91
2023-03-16T07:01:51.632Z,101468.59
2023-03-16T07:04:19.234Z,101469.47
2023-03-16T07:06:46.951Z,101476.41
2023-03-16T07:09:14.615Z,101484.25
2023-03-16T07:11:48.150Z,101482.53
2023-03-16T07:14:15.814Z,101476.47
2023-03-16T07:16:43.890Z,101474.72
2023-03-16T07:19:11.651Z,101470.38
2023-03-16T07:21:40.787Z,101462.59
2023-03-16T07:24:13.094Z,101465.16
2023-03-16T07:26:43.139Z,101456.50
2023-03-16T07:29:14.395Z,101454.78
2023-03-16T07:31:42.839Z,101458.28
2023-03-16T07:34:16.218Z,101460.03
2023-03-16T07:36:52.697Z,101466.13
2023-03-16T07:39:21.528Z,101466.16
2023-03-16T07:41:51.566Z,101462.69
2023-03-16T07:44:31.311Z,101466.19
2023-03-16T07:46:59.555Z,101472.28
2023-03-16T07:49:30.180Z,101466.22
2023-03-16T07:51:59.620Z,101461.00
2023-03-16T07:54:35.730Z,101464.50
2023-03-16T07:57:06.434Z,101467.13
2023-03-16T07:59:39.400Z,101461.91
2023-03-16T08:02:14.706Z,101467.13
2023-03-16T08:04:43.454Z,101465.38
2023-03-16T08:07:14.269Z,101464.53
2023-03-16T08:09:59.782Z,101454.97
2023-03-16T08:12:33.721Z,101454.09
2023-03-16T08:15:01.849Z,101448.91
2023-03-16T08:17:32.561Z,101455.88
2023-03-16T08:20:12.408Z,101449.78
2023-03-16T08:22:41.529Z,101443.72
2023-03-16T08:25:12.576Z,101446.34
2023-03-16T08:27:48.588Z,101439.38
2023-03-16T08:30:17.446Z,101439.38
2023-03-16T08:32:52.610Z,101448.13
2023-03-16T08:35:20.358Z,101452.47
2023-03-16T08:37:49.502Z,101440.28
2023-03-16T08:40:18.262Z,101437.69
2023-03-16T08:42:50.077Z,101437.72
2023-03-16T08:45:19.975Z,101424.69
2023-03-16T08:47:47.745Z,101436.88
2023-03-16T08:50:16.726Z,101433.38
2023-03-16T08:52:44.298Z,101430.78
2023-03-16T08:55:13.231Z,101428.19
2023-03-16T08:57:41.773Z,101429.03
2023-03-16T09:00:14.227Z,101427.28
2023-03-16T09:02:43.007Z,101427.28
2023-03-16T09:05:14.947Z,101424.66
2023-03-16T09:07:43.653Z,101435.09
2023-03-16T09:10:16.093Z,101424.63
2023-03-16T09:12:43.979Z,101421.09
2023-03-16T09:15:13.886Z,101425.44
2023-03-16T09:17:43.705Z,101413.25
2023-03-16T09:20:22.445Z,101416.69
2023-03-16T09:22:55.787Z,101417.56
2023-03-16T09:25:25.399Z,101415.81
2023-03-16T09:27:53.836Z,101423.63
2023-03-16T09:30:21.290Z,101415.78
2023-03-16T09:32:49.291Z,101416.66
2023-03-16T09:35:16.987Z,101408.78
2023-03-16T09:38:01.187Z,101409.66
2023-03-16T09:40:33.859Z,101407.00
2023-03-16T09:43:38.651Z,101401.69
2023-03-16T09:46:24.007Z,101410.38
2023-03-16T09:48:52.220Z,101405.97
2023-03-16T09:51:45.383Z,101412.03
2023-03-16T09:54:27.651Z,101398.84
2023-03-16T09:56:58.001Z,101397.91
2023-03-16T09:59:27.214Z,101404.81
2023-03-16T10:02:39.507Z,101409.09
2023-03-16T10:05:12.621Z,101402.94
2023-03-16T10:08:14.063Z,101401.09
2023-03-16T10:10:56.544Z,101393.09
2023-03-16T10:14:05.866Z,101379.91
2023-03-16T10:16:48.833Z,101371.00
2023-03-16T10:19:49.965Z,101373.53
2023-03-16T10:22:48.888Z,101364.69
2023-03-16T10:25:30.791Z,101370.66
2023-03-16T10:27:58.428Z,101367.91
2023-03-16T10:30:37.384Z,101361.59
2023-03-16T10:33:30.288Z,101356.84
2023-03-16T10:35:57.663Z,101362.75
2023-03-16T10:38:40.213Z,101359.03
2023-03-16T10:41:22.528Z,101358.91
2023-03-16T10:44:10.140Z,101362.25
2023-03-16T10:47:04.838Z,101355.91
2023-03-16T10:49:48.715Z,101347.78
2023-03-16T10:52:43.076Z,101351.88
2023-03-16T10:55:24.283Z,101349.22
2023-03-16T10:57:55.719Z,101343.84
2023-03-16T11:00:31.036Z,101341.00
2023-03-16T11:03:00.113Z,101339.00
2023-03-16T11:05:32.915Z,101343.00
2023-03-16T11:08:25.671Z,101325.84
2023-03-16T11:11:02.608Z,101335.16
2023-03-16T11:13:38.714Z,101333.91
2023-03-16T11:16:38.286Z,101330.16
2023-03-16T11:19:47.334Z,101330.03
2023-03-16T11:22:33.825Z,101319.38
2023-03-16T11:25:12.691Z,101307.97
2023-03-16T11:27:46.106Z,101305.38
2023-03-16T11:30:30.932Z,101304.41
2023-03-16T11:33:00.503Z,101295.63
2023-03-16T11:35:58.347Z,101295.50
2023-03-16T11:38:42.035Z,101289.38
2023-03-16T11:41:18.514Z,101280.66
2023-03-16T11:43:49.567Z,101285.91
2023-03-16T11:46:31.459Z,101284.00
2023-03-16T11:49:39.350Z,101275.09
2023-03-16T11:52:42.854Z,101270.81
2023-03-16T11:55:38.036Z,101262.94
2023-03-16T11:58:55.944Z,101263.88
2023-03-16T12:01:23.424Z,101259.47
2023-03-16T12:04:22.324Z,101254.00
2023-03-16T12:07:14.586Z,101259.13
2023-03-16T12:10:08.051Z,101259.06
2023-03-16T12:13:16.329Z,101246.56
2023-03-16T12:15:52.100Z,101235.81
2023-03-16T12:18:33.429Z,101244.38
2023-03-16T12:21:07.558Z,101243.34
2023-03-16T12:23:50.183Z,101232.63
2023-03-16T12:26:20.651Z,101228.22
2023-03-16T12:28:50.746Z,101214.03
2023-03-16T12:31:37.528Z,101213.81
2023-03-16T12:34:34.578Z,101223.19
2023-03-16T12:37:24.601Z,101215.94
2023-03-16T12:40:10.507Z,101205.97
2023-03-16T12:43:39.624Z,101215.84
2023-03-16T12:46:18.617Z,101198.75
2023-03-16T12:48:53.888Z,101194.06
2023-03-16T12:51:32.651Z,101180.47
2023-03-16T12:54:00.677Z,101174.81
2023-03-16T12:56:36.721Z,101173.72
2023-03-16T12:59:07.637Z,101170.13
2023-03-16T13:01:43.755Z,101163.81
2023-03-16T13:04:19.851Z,101157.31
2023-03-16T13:07:09.136Z,101156.22
2023-03-16T13:09:46.517Z,101143.75
2023-03-16T13:12:36.985Z,101121.50
2023-03-16T13:15:20.429Z,101122.16
2023-03-16T13:17:51.709Z,101117.59
2023-03-16T13:20:32.157Z,101113.69
2023-03-16T13:23:22.248Z,101115.03
2023-03-16T13:26:12.923Z,101113.63
2023-03-16T13:28:43.149Z,101114.16
2023-03-16T13:31:39.163Z,101106.03
2023-03-16T13:34:14.712Z,101110.31
2023-03-16T13:36:45.460Z,101109.22
2023-03-16T13:39:28.769Z,101101.91
2023-03-16T13:41:57.415Z,101112.34
2023-03-16T13:44:26.262Z,101106.84
2023-03-16T13:46:54.019Z,101101.38
2023-03-16T13:49:22.301Z,101098.44
2023-03-16T13:51:50.256Z,101095.50
2023-03-16T13:54:29.770Z,101093.41
2023-03-16T13:57:06.539Z,101093.31
2023-03-16T13:59:34.088Z,101083.59
2023-03-16T14:02:02.181Z,101078.22
2023-03-16T14:04:32.608Z,101065.94
2023-03-16T14:07:03.594Z,101069.56
2023-03-16T14:09:35.388Z,101056.38
2023-03-16T14:12:03.730Z,101060.88
2023-03-16T14:14:39.395Z,101040.72
2023-03-16T14:17:21.897Z,101043.28
2023-03-16T14:19:59.992Z,101040.38
2023-03-16T14:22:38.267Z,101037.53
2023-03-16T14:25:06.973Z,101032.91
2023-03-16T14:27:41.014Z,101035.88
2023-03-16T14:30:27.731Z,101034.81
2023-03-16T14:33:06.892Z,101038.25
2023-03-16T14:35:44.491Z,101027.53
2023-03-16T14:38:33.581Z,101025.81
2023-03-16T14:41:17.138Z,101019.59
2023-03-16T14:43:51.792Z,101008.59
2023-03-16T14:46:34.169Z,101007.25
2023-03-16T14:49:08.783Z,101003.53
2023-03-16T14:51:40.706Z,101000.03
2023-03-16T14:54:21.829Z,100992.13
2023-03-16T14:57:22.939Z,101001.09
2023-03-16T14:59:50.464Z,101003.00
2023-03-16T15:02:41.057Z,100997.59
2023-03-16T15:05:28.361Z,100993.19
2023-03-16T15:07:56.576Z,100988.06
2023-03-16T15:10:29.770Z,100993.47
2023-03-16T15:13:06.210Z,100983.31
2023-03-16T15:15:33.950Z,100975.75
2023-03-16T15:18:01.425Z,100983.06
2023-03-16T15:20:36.184Z,100977.19
2023-03-16T15:23:04.936Z,100972.94
2023-03-16T15:25:42.112Z,100972.06
2023-03-16T15:28:17.387Z,100970.34
2023-03-16T15:30:47.860Z,100971.25
2023-03-16T15:33:17.233Z,100967.81
2023-03-16T15:35:47.743Z,100956.44
2023-03-16T15:38:32.130Z,100946.78
2023-03-16T15:41:00.463Z,100942.41
2023-03-16T15:43:30.719Z,100943.13
2023-03-16T15:45:59.951Z,100946.47
2023-03-16T15:48:27.642Z,100947.84
2023-03-16T15:51:16.806Z,100944.06
2023-03-16T15:53:51.276Z,100944.75
2023-03-16T15:56:30.045Z,100933.31
2023-03-16T15:59:02.255Z,100929.88
2023-03-16T16:01:38.325Z,100929.25
2023-03-16T16:04:13.772Z,100930.47
2023-03-16T16:06:42.096Z,100941.34
2023-03-16T16:09:10.591Z,100941.50
2023-03-16T16:11:39.651Z,100934.56
2023-03-16T16:14:22.069Z,100926.88
2023-03-16T16:16:50.334Z,100933.34
2023-03-16T16:19:18.827Z,100935.31
2023-03-16T16:21:47.451Z,100929.50
2023-03-16T16:24:15.792Z,100927.97
2023-03-16T16:26:53.316Z,100922.06
2023-03-16T16:29:27.427Z,100920.66
2023-03-16T16:31:55.505Z,100921.00
2023-03-16T16:34:25.097Z,100915.09
2023-03-16T16:36:57.244Z,100917.97
2023-03-16T16:39:27.455Z,100919.97
2023-03-16T16:41:56.600Z,100918.56
2023-03-16T16:44:29.738Z,100920.66
2023-03-16T16:46:59.799Z,100920.09
2023-03-16T16:49:30.999Z,100920.41
2023-03-16T16:51:59.332Z,100919.78
2023-03-16T16:54:31.974Z,100928.88
2023-03-16T16:57:01.104Z,100920.38
2023-03-16T16:59:34.255Z,100914.56
2023-03-16T17:02:21.290Z,100920.19
2023-03-16T17:04:50.815Z,100927.72
2023-03-16T17:07:18.691Z,100917.53
2023-03-16T17:09:46.470Z,100921.41
2023-03-16T17:12:21.797Z,100914.75
2023-03-16T17:14:50.644Z,100913.47
2023-03-16T17:17:18.841Z,100915.53
2023-03-16T17:19:47.040Z,100915.03
2023-03-16T17:22:26.122Z,100915.31
2023-03-16T17:24:55.161Z,100925.31
2023-03-16T17:27:28.551Z,100917.78
2023-03-16T17:29:57.696Z,100918.91
2023-03-16T17:32:26.094Z,100917.44
2023-03-16T17:34:53.593Z,100913.34
2023-03-16T17:37:22.449Z,100910.88
2023-03-16T17:39:50.026Z,100911.16
2023-03-16T17:42:19.970Z,100917.59
2023-03-16T17:44:50.780Z,100920.44
2023-03-16T17:47:25.549Z,100928.63
2023-03-16T17:49:54.592Z,100917.44
2023-03-16T17:52:26.121Z,100927.28
2023-03-16T17:54:54.792Z,100929.25
2023-03-16T17:57:30.494Z,100925.94
2023-03-16T18:00:01.108Z,100928.81
2023-03-16T18:02:42.009Z,100926.38
2023-03-16T18:05:34.366Z,100926.66
2023-03-16T18:08:17.658Z,100927.72
2023-03-16T18:10:47.408Z,100923.59
2023-03-16T18:13:27.611Z,100926.34
2023-03-16T18:15:56.290Z,100926.53
2023-03-16T18:18:36.525Z,100926.69
2023-03-16T18:21:04.558Z,100918.94
2023-03-16T18:23:34.797Z,100920.78
2023-03-16T18:26:07.101Z,100919.16
2023-03-16T18:28:34.740Z,100915.78
2023-03-16T18:31:05.117Z,100919.41
2023-03-16T18:33:39.471Z,100912.50
2023-03-16T18:36:24.149Z,100920.47
2023-03-16T18:38:53.750Z,100928.53
2023-03-16T18:41:33.979Z,100930.38
2023-03-16T18:44:17.231Z,100923.47
2023-03-16T18:46:46.863Z,100926.25
2023-03-16T18:49:51.471Z,100911.50
2023-03-16T18:52:23.711Z,100917.84
2023-03-16T18:54:53.085Z,100915.28
2023-03-16T18:57:24.630Z,100917.16
2023-03-16T18:59:52.902Z,100922.47
2023-03-16T19:02:39.481Z,100926.88
2023-03-16T19:05:20.233Z,100925.25
2023-03-16T19:07:52.378Z,100931.50
2023-03-16T19:10:35.574Z,100925.41
2023-03-16T19:13:04.497Z,100920.31
2023-03-16T19:15:36.194Z,100907.25
2023-03-16T19:18:03.889Z,100909.06
2023-03-16T19:20:34.883Z,100904.78
2023-03-16T19:23:30.739Z,100909.19
2023-03-16T19:26:01.663Z,100898.81
2023-03-16T19:28:34.274Z,100895.34
2023-03-16T19:31:08.615Z,100882.25
2023-03-16T19:33:36.601Z,100882.28
2023-03-16T19:36:04.731Z,100877.94
2023-03-16T19:38:32.216Z,100872.72
2023-03-16T19:41:03.349Z,100875.38
2023-03-16T19:43:31.028Z,100872.81
2023-03-16T19:45:58.874Z,100876.34
2023-03-16T19:48:34.545Z,100878.94
2023-03-16T19:51:02.303Z,100876.34
2023-03-16T19:53:29.778Z,100871.91
2023-03-16T19:55:57.344Z,100871.91
2023-03-16T19:58:36.030Z,100862.25
2023-03-16T20:01:03.609Z,100871.91
2023-03-16T20:03:36.483Z,100857.94
2023-03-16T20:06:04.804Z,100857.09
2023-03-16T20:08:32.425Z,100847.53
2023-03-16T20:11:05.713Z,100861.53
2023-03-16T20:13:36.262Z,100859.88
2023-03-16T20:16:04.262Z,100866.00
2023-03-16T20:18:32.018Z,100861.66
2023-03-16T20:20:59.727Z,100856.44
2023-03-16T20:23:30.136Z,100856.47
2023-03-16T20:26:02.691Z,100859.16
2023-03-16T20:28:38.083Z,100863.59
2023-03-16T20:31:09.217Z,100859.22
2023-03-16T20:33:36.797Z,100854.91
2023-03-16T20:36:04.854Z,100849.66
2023-03-16T20:38:32.420Z,100841.00
2023-03-16T20:41:00.995Z,100845.38
2023-03-16T20:43:32.744Z,100843.69
2023-03-16T20:46:03.760Z,100828.91
2023-03-16T20:48:32.463Z,100830.69
2023-03-16T20:51:00.610Z,100819.38
2023-03-16T20:53:28.627Z,100822.91
2023-03-16T20:55:57.011Z,100824.75
2023-03-16T20:58:28.118Z,100817.78
2023-03-16T21:01:01.061Z,100807.41
2023-03-16T21:03:33.351Z,100805.72
2023-03-16T21:06:01.184Z,100809.28
2023-03-16T21:08:28.893Z,100805.88
2023-03-16T21:10:57.395Z,100806.81
2023-03-16T21:13:32.860Z,100815.66
2023-03-16T21:16:03.426Z,100811.38
2023-03-16T21:18:31.255Z,100807.94
2023-03-16T21:20:58.983Z,100803.59
2023-03-16T21:23:27.356Z,100805.41
2023-03-16T21:25:59.552Z,100791.50
2023-03-16T21:28:32.456Z,100793.38
2023-03-16T21:31:01.229Z,100796.03
2023-03-16T21:33:34.897Z,100804.84
2023-03-16T21:36:07.205Z,100799.72
2023-03-16T21:38:34.853Z,100787.53
2023-03-16T21:41:02.421Z,100798.09
2023-03-16T21:43:29.938Z,100797.28
2023-03-16T21:45:58.063Z,100791.22
2023-03-16T21:48:36.198Z,100780.78
2023-03-16T21:51:22.033Z,100798.34
2023-03-16T21:53:49.721Z,100797.56
2023-03-16T21:56:22.892Z,100790.63
2023-03-16T21:58:51.047Z,100792.41
2023-03-16T22:01:28.947Z,100794.19
2023-03-16T22:04:02.790Z,100793.44
2023-03-16T22:06:30.871Z,100783.84
2023-03-16T22:09:00.571Z,100786.53
2023-03-16T22:11:30.728Z,100765.59
2023-03-16T22:13:59.435Z,100782.19
2023-03-16T22:16:35.170Z,100783.97
2023-03-16T22:19:04.291Z,100774.41
2023-03-16T22:21:39.062Z,100769.19
2023-03-16T22:24:16.604Z,100770.09
2023-03-16T22:26:44.560Z,100758.78
2023-03-16T22:29:36.547Z,100734.31
2023-03-16T22:32:12.392Z,100734.38
2023-03-16T22:34:48.434Z,100741.38
2023-03-16T22:37:25.565Z,100764.06
2023-03-16T22:39:54.350Z,100778.94
2023-03-16T22:42:37.277Z,100770.22
2023-03-16T22:45:28.708Z,100752.75
2023-03-16T22:47:58.601Z,100767.63
2023-03-16T22:50:30.724Z,100771.13
2023-03-16T22:53:04.145Z,100776.38
2023-03-16T22:55:40.264Z,100778.94
2023-03-16T22:58:23.803Z,100765.91
2023-03-16T23:00:51.530Z,100762.41
2023-03-16T23:03:23.717Z,100754.50
2023-03-16T23:05:51.823Z,100761.44
2023-03-16T23:08:23.435Z,100764.91
2023-03-16T23:10:51.827Z,100758.78
2023-03-16T23:13:24.623Z,100757.00
2023-03-16T23:15:53.512Z,100757.00
2023-03-16T23:18:24.934Z,100738.59
2023-03-16T23:20:52.977Z,100746.47
2023-03-16T23:23:20.551Z,100743.84
2023-03-16T23:25:48.733Z,100750.81
2023-03-16T23:28:25.052Z,100747.28
2023-03-16T23:30:52.700Z,100750.81
2023-03-16T23:33:20.224Z,100755.19
2023-03-16T23:35:47.774Z,100744.72
2023-03-16T23:38:15.473Z,100735.97
2023-03-16T23:40:42.973Z,100752.53
2023-03-16T23:43:10.636Z,100745.59
2023-03-16T23:45:45.080Z,100753.44
2023-03-16T23:48:18.930Z,100758.69
2023-03-16T23:50:53.048Z,100754.28
2023-03-16T23:53:21.268Z,100743.84
2023-03-16T23:55:49.222Z,100744.72
2023-03-16T23:58:17.447Z,100740.38
